createdAt,value
2018-01-15T00:01:08.283Z,36.58
2018-01-15T00:03:35.728Z,37.13
2018-01-15T00:06:03.196Z,37.20
2018-01-15T00:08:30.648Z,37.20
2018-01-15T00:10:58.101Z,36.13
2018-01-15T00:13:25.592Z,36.95
2018-01-15T00:15:53.070Z,35.83
2018-01-15T00:18:20.513Z,34.60
2018-01-15T00:20:48.011Z,35.97
2018-01-15T00:23:15.496Z,36.28
2018-01-15T00:25:42.971Z,35.75
2018-01-15T00:28:10.478Z,34.45
2018-01-15T00:30:37.968Z,34.42
2018-01-15T00:33:05.422Z,33.92
2018-01-15T00:35:32.903Z,33.13
2018-01-15T00:38:00.355Z,32.72
2018-01-15T00:40:27.867Z,33.58
2018-01-15T00:42:55.323Z,33.22
2018-01-15T00:45:22.792Z,34.17
2018-01-15T00:47:50.236Z,32.40
2018-01-15T00:50:17.704Z,35.47
2018-01-15T00:52:45.165Z,33.03
2018-01-15T00:55:12.623Z,34.70
2018-01-15T00:57:40.098Z,31.08
2018-01-15T01:00:07.539Z,35.25
2018-01-15T01:02:35.003Z,32.25
2018-01-15T01:05:02.484Z,32.20
2018-01-15T01:07:29.932Z,32.90
2018-01-15T01:09:57.384Z,32.65
2018-01-15T01:12:24.906Z,33.88
2018-01-15T01:14:52.379Z,32.10
2018-01-15T01:17:19.823Z,31.42
2018-01-15T01:19:47.288Z,33.35
2018-01-15T01:22:14.754Z,32.85
2018-01-15T01:24:42.208Z,32.85
2018-01-15T01:27:09.668Z,33.78
2018-01-15T01:29:37.124Z,32.80
2018-01-15T01:32:04.599Z,30.98
2018-01-15T01:34:32.095Z,32.90
2018-01-15T01:36:59.557Z,32.45
2018-01-15T01:39:27.012Z,30.60
2018-01-15T01:41:54.498Z,32.72
2018-01-15T01:44:21.952Z,33.58
2018-01-15T01:46:49.414Z,32.60
2018-01-15T01:49:16.889Z,34.70
2018-01-15T01:51:44.340Z,30.88
2018-01-15T01:54:11.806Z,32.63
2018-01-15T01:56:39.292Z,31.37
2018-01-15T01:59:06.739Z,33.20
2018-01-15T02:01:34.184Z,34.97
2018-01-15T02:04:01.651Z,31.92
2018-01-15T02:06:29.118Z,35.25
2018-01-15T02:08:56.564Z,33.45
2018-01-15T02:11:24.028Z,33.33
2018-01-15T02:13:51.482Z,34.47
2018-01-15T02:16:18.947Z,35.13
2018-01-15T02:18:46.407Z,33.55
2018-01-15T02:21:13.870Z,34.35
2018-01-15T02:23:41.317Z,32.80
2018-01-15T02:26:08.795Z,36.58
2018-01-15T02:28:36.271Z,35.03
2018-01-15T02:31:03.753Z,34.80
2018-01-15T02:33:31.238Z,33.22
2018-01-15T02:35:58.706Z,32.58
2018-01-15T02:38:26.148Z,33.10
2018-01-15T02:40:53.623Z,32.08
2018-01-15T02:43:21.072Z,32.70
2018-01-15T02:45:48.531Z,33.83
2018-01-15T02:48:16.010Z,33.63
2018-01-15T02:50:43.486Z,33.72
2018-01-15T02:53:10.931Z,33.00
2018-01-15T02:55:38.395Z,31.77
2018-01-15T02:58:05.871Z,33.65
2018-01-15T03:00:33.338Z,32.50
2018-01-15T03:03:00.807Z,30.85
2018-01-15T03:05:28.271Z,32.33
2018-01-15T03:07:55.743Z,32.95
2018-01-15T03:10:23.222Z,33.78
2018-01-15T03:12:50.672Z,34.35
2018-01-15T03:15:18.138Z,32.45
2018-01-15T03:17:45.595Z,31.98
2018-01-15T03:20:13.043Z,33.40
2018-01-15T03:22:40.504Z,33.85
2018-01-15T03:25:07.991Z,30.58
2018-01-15T03:27:35.439Z,33.75
2018-01-15T03:30:02.902Z,29.50
2018-01-15T03:32:30.364Z,29.83
2018-01-15T03:34:57.831Z,32.40
2018-01-15T03:37:25.280Z,31.10
2018-01-15T03:39:52.740Z,30.23
2018-01-15T03:42:20.213Z,30.62
2018-01-15T03:44:47.687Z,33.05
2018-01-15T03:47:15.179Z,30.35
2018-01-15T03:49:42.626Z,30.65
2018-01-15T03:52:10.076Z,30.65
2018-01-15T03:54:37.555Z,31.45
2018-01-15T03:57:05.113Z,29.98
2018-01-15T03:59:32.564Z,30.02
2018-01-15T04:02:00.054Z,29.37
2018-01-15T04:04:27.507Z,29.80
2018-01-15T04:06:54.963Z,32.65
2018-01-15T04:09:22.432Z,30.25
2018-01-15T04:11:49.880Z,30.92
2018-01-15T04:14:17.324Z,30.52
2018-01-15T04:16:44.788Z,29.42
2018-01-15T04:19:12.254Z,32.40
2018-01-15T04:21:39.727Z,30.10
2018-01-15T04:24:07.197Z,28.55
2018-01-15T04:26:34.648Z,31.25
2018-01-15T04:29:02.099Z,29.87
2018-01-15T04:31:29.583Z,32.10
2018-01-15T04:33:57.033Z,30.02
2018-01-15T04:36:24.488Z,30.70
2018-01-15T04:38:51.948Z,29.02
2018-01-15T04:41:19.392Z,30.15
2018-01-15T04:43:46.859Z,30.40
2018-01-15T04:46:14.321Z,32.30
2018-01-15T04:48:41.787Z,31.42
2018-01-15T04:51:09.254Z,27.85
2018-01-15T04:53:36.743Z,33.95
2018-01-15T04:56:04.200Z,31.48
2018-01-15T04:58:31.658Z,31.02
2018-01-15T05:00:59.143Z,31.25
2018-01-15T05:03:26.596Z,31.20
2018-01-15T05:05:54.050Z,30.95
2018-01-15T05:08:21.477Z,30.60
2018-01-15T05:10:48.984Z,31.98
2018-01-15T05:13:16.436Z,33.03
2018-01-15T05:15:43.905Z,33.50
2018-01-15T05:18:11.370Z,31.55
2018-01-15T05:20:38.824Z,30.10
2018-01-15T05:23:06.288Z,34.42
2018-01-15T05:25:33.741Z,33.30
2018-01-15T05:28:01.204Z,31.50
2018-01-15T05:30:28.722Z,30.45
2018-01-15T05:32:56.168Z,30.83
2018-01-15T05:35:23.624Z,30.77
2018-01-15T05:37:51.087Z,33.00
2018-01-15T05:40:18.550Z,33.35
2018-01-15T05:42:46.008Z,32.40
2018-01-15T05:45:13.526Z,30.90
2018-01-15T05:47:40.998Z,30.90
2018-01-15T05:50:08.470Z,35.15
2018-01-15T05:52:35.975Z,31.92
2018-01-15T05:55:03.439Z,33.80
2018-01-15T05:57:30.907Z,32.67
2018-01-15T05:59:58.407Z,33.85
2018-01-15T06:02:25.902Z,34.88
2018-01-15T06:04:53.379Z,32.55
2018-01-15T06:07:20.865Z,33.10
2018-01-15T06:09:48.312Z,31.42
2018-01-15T06:12:15.764Z,32.13
2018-01-15T06:14:43.232Z,32.72
2018-01-15T06:17:10.686Z,31.77
2018-01-15T06:19:38.154Z,33.97
2018-01-15T06:22:05.646Z,31.10
2018-01-15T06:24:33.096Z,32.75
2018-01-15T06:27:00.559Z,33.22
2018-01-15T06:29:28.958Z,32.35
2018-01-15T06:31:56.466Z,31.92
2018-01-15T06:34:23.916Z,31.62
2018-01-15T06:36:51.402Z,31.92
2018-01-15T06:39:18.990Z,31.62
2018-01-15T06:41:46.460Z,32.47
2018-01-15T06:44:13.948Z,33.25
2018-01-15T06:46:41.404Z,32.88
2018-01-15T06:49:08.873Z,32.90
2018-01-15T06:51:36.324Z,33.15
2018-01-15T06:54:03.790Z,35.38
2018-01-15T06:56:31.252Z,31.40
2018-01-15T06:58:58.732Z,31.25
2018-01-15T07:01:26.195Z,31.02
2018-01-15T07:03:53.644Z,33.10
2018-01-15T07:06:21.113Z,31.12
2018-01-15T07:08:48.583Z,30.60
2018-01-15T07:11:16.030Z,31.27
2018-01-15T07:13:43.549Z,32.20
2018-01-15T07:16:10.962Z,31.73
2018-01-15T07:18:38.416Z,30.92
2018-01-15T07:21:05.894Z,33.78
2018-01-15T07:23:33.363Z,29.83
2018-01-15T07:26:00.958Z,30.73
2018-01-15T07:28:28.426Z,31.85
2018-01-15T07:30:55.876Z,29.50
2018-01-15T07:33:23.403Z,30.75
2018-01-15T07:35:50.868Z,30.15
2018-01-15T07:38:18.323Z,31.05
2018-01-15T07:40:45.807Z,30.52
2018-01-15T07:43:13.271Z,32.08
2018-01-15T07:45:40.728Z,30.70
2018-01-15T07:48:08.210Z,31.60
2018-01-15T07:50:35.676Z,31.58
2018-01-15T07:53:03.135Z,31.70
2018-01-15T07:55:30.664Z,30.58
2018-01-15T07:57:58.139Z,31.23
2018-01-15T08:00:25.584Z,31.87
2018-01-15T08:02:53.071Z,32.15
2018-01-15T08:05:20.528Z,30.55
2018-01-15T08:07:47.993Z,31.00
2018-01-15T08:10:15.473Z,31.62
2018-01-15T08:12:42.956Z,30.05
2018-01-15T08:15:10.512Z,29.35
2018-01-15T08:17:37.976Z,30.42
2018-01-15T08:20:05.409Z,30.50
2018-01-15T08:22:32.930Z,28.15
2018-01-15T08:25:00.406Z,28.60
2018-01-15T08:27:27.883Z,30.67
2018-01-15T08:29:55.369Z,29.25
2018-01-15T08:32:22.821Z,30.17
2018-01-15T08:34:50.271Z,32.63
2018-01-15T08:37:17.755Z,30.40
2018-01-15T08:39:45.222Z,27.73
2018-01-15T08:42:12.682Z,30.10
2018-01-15T08:44:40.148Z,30.35
2018-01-15T08:47:07.615Z,30.58
2018-01-15T08:49:35.060Z,28.65
2018-01-15T08:52:02.546Z,26.58
2018-01-15T08:54:29.995Z,28.87
2018-01-15T08:56:57.460Z,29.67
2018-01-15T08:59:24.920Z,29.00
2018-01-15T09:01:52.374Z,28.50
2018-01-15T09:04:19.850Z,27.80
2018-01-15T09:06:47.304Z,30.50
2018-01-15T09:09:14.814Z,28.70
2018-01-15T09:11:42.295Z,29.73
2018-01-15T09:14:09.742Z,28.25
2018-01-15T09:16:37.232Z,29.30
2018-01-15T09:19:04.701Z,28.65
2018-01-15T09:21:32.167Z,28.67
2018-01-15T09:23:59.641Z,27.80
2018-01-15T09:26:27.366Z,27.85
2018-01-15T09:28:54.834Z,26.80
2018-01-15T09:31:22.331Z,25.52
2018-01-15T09:33:49.785Z,26.05
2018-01-15T09:36:17.261Z,26.87
2018-01-15T09:38:44.729Z,26.10
2018-01-15T09:41:12.224Z,26.08
2018-01-15T09:43:39.689Z,27.00
2018-01-15T09:46:07.214Z,27.00
2018-01-15T09:48:34.843Z,23.70
2018-01-15T09:51:02.277Z,24.05
2018-01-15T09:53:29.790Z,22.50
2018-01-15T09:55:57.237Z,24.70
2018-01-15T09:58:24.740Z,23.80
2018-01-15T10:00:52.241Z,23.50
2018-01-15T10:03:19.734Z,24.15
2018-01-15T10:05:47.200Z,23.87
2018-01-15T10:08:14.665Z,22.95
2018-01-15T10:10:42.117Z,25.52
2018-01-15T10:13:09.594Z,24.65
2018-01-15T10:15:37.048Z,23.08
2018-01-15T10:18:04.811Z,24.42
2018-01-15T10:20:32.306Z,24.08
2018-01-15T10:23:00.094Z,24.17
2018-01-15T10:25:27.574Z,24.25
2018-01-15T10:27:55.079Z,24.23
2018-01-15T10:30:22.574Z,22.08
2018-01-15T10:32:50.034Z,23.75
2018-01-15T10:35:17.519Z,23.95
2018-01-15T10:37:45.186Z,23.15
2018-01-15T10:40:12.660Z,22.00
2018-01-15T10:42:40.151Z,24.58
2018-01-15T10:45:07.627Z,22.87
2018-01-15T10:47:35.084Z,23.83
2018-01-15T10:50:03.459Z,21.80
2018-01-15T10:52:30.918Z,22.05
2018-01-15T10:54:58.405Z,22.70
2018-01-15T10:57:25.876Z,20.17
2018-01-15T10:59:53.330Z,23.05
2018-01-15T11:02:20.784Z,22.65
2018-01-15T11:04:48.278Z,21.27
2018-01-15T11:07:15.728Z,22.23
2018-01-15T11:09:43.192Z,21.80
2018-01-15T11:12:10.682Z,20.50
2018-01-15T11:14:38.150Z,22.13
2018-01-15T11:17:05.604Z,22.70
2018-01-15T11:19:33.092Z,22.10
2018-01-15T11:22:00.564Z,21.48
2018-01-15T11:24:28.018Z,21.30
2018-01-15T11:26:55.487Z,21.10
2018-01-15T11:29:22.958Z,21.52
2018-01-15T11:31:50.416Z,20.08
2018-01-15T11:34:17.888Z,21.45
2018-01-15T11:36:45.360Z,20.52
2018-01-15T11:39:12.815Z,22.50
2018-01-15T11:41:40.287Z,21.40
2018-01-15T11:44:07.749Z,22.25
2018-01-15T11:46:35.204Z,21.48
2018-01-15T11:49:02.674Z,22.75
2018-01-15T11:51:30.127Z,20.62
2018-01-15T11:53:57.610Z,21.48
2018-01-15T11:56:25.107Z,22.42
2018-01-15T11:58:52.576Z,21.85
2018-01-15T12:01:20.054Z,22.98
2018-01-15T12:03:47.524Z,22.65
2018-01-15T12:06:15.011Z,21.60
2018-01-15T12:08:42.475Z,21.58
2018-01-15T12:11:09.966Z,22.65
2018-01-15T12:13:37.447Z,21.67
2018-01-15T12:16:04.918Z,22.10
2018-01-15T12:18:32.383Z,22.30
2018-01-15T12:20:59.836Z,21.33
2018-01-15T12:23:27.319Z,21.77
2018-01-15T12:25:54.784Z,23.13
2018-01-15T12:28:22.267Z,22.13
2018-01-15T12:30:49.755Z,23.00
2018-01-15T12:33:17.237Z,21.60
2018-01-15T12:35:44.684Z,21.97
2018-01-15T12:38:12.144Z,20.93
2018-01-15T12:40:39.634Z,22.10
2018-01-15T12:43:07.098Z,22.93
2018-01-15T12:45:34.557Z,21.40
2018-01-15T12:48:02.842Z,22.63
2018-01-15T12:50:30.302Z,22.20
2018-01-15T12:52:57.766Z,20.10
2018-01-15T12:55:25.243Z,20.60
2018-01-15T12:57:52.692Z,18.93
2018-01-15T13:00:20.140Z,20.90
2018-01-15T13:02:47.605Z,20.70
2018-01-15T13:05:15.075Z,21.17
2018-01-15T13:07:54.371Z,22.47
2018-01-15T13:10:21.823Z,20.60
2018-01-15T13:12:49.264Z,19.47
2018-01-15T13:15:16.747Z,20.80
2018-01-15T13:17:44.191Z,22.47
2018-01-15T13:20:11.641Z,20.80
2018-01-15T13:22:39.115Z,20.97
2018-01-15T13:25:06.587Z,22.20
2018-01-15T13:27:34.046Z,22.20
2018-01-15T13:30:01.532Z,22.50
2018-01-15T13:32:29.139Z,22.57
2018-01-15T13:34:56.607Z,21.37
2018-01-15T13:37:24.079Z,21.33
2018-01-15T13:39:51.533Z,20.60
2018-01-15T13:42:19.002Z,24.00
2018-01-15T13:44:46.464Z,21.97
2018-01-15T13:47:13.958Z,19.60
2018-01-15T13:49:41.410Z,21.27
2018-01-15T13:52:08.890Z,22.00
2018-01-15T13:54:36.354Z,22.20
2018-01-15T13:57:03.801Z,21.23
2018-01-15T13:59:31.282Z,22.87
2018-01-15T14:01:58.741Z,22.30
2018-01-15T14:04:26.217Z,24.00
2018-01-15T14:06:53.698Z,26.10
2018-01-15T14:09:21.145Z,27.70
2018-01-15T14:11:48.592Z,29.17
2018-01-15T14:14:16.071Z,29.20
2018-01-15T14:16:43.514Z,30.07
2018-01-15T14:19:10.960Z,29.50
2018-01-15T14:21:38.445Z,29.00
2018-01-15T14:24:05.889Z,30.57
2018-01-15T14:26:33.340Z,30.03
2018-01-15T14:29:00.912Z,29.70
2018-01-15T14:31:28.382Z,31.90
2018-01-15T14:33:55.832Z,29.60
2018-01-15T14:36:23.299Z,32.83
2018-01-15T14:38:50.752Z,31.08
2018-01-15T14:41:18.204Z,31.50
2018-01-15T14:43:45.672Z,31.65
2018-01-15T14:46:13.134Z,29.87
2018-01-15T14:48:40.595Z,32.00
2018-01-15T14:51:08.083Z,31.75
2018-01-15T14:53:35.532Z,31.77
2018-01-15T14:56:02.983Z,32.20
2018-01-15T14:58:30.447Z,32.83
2018-01-15T15:00:57.918Z,31.95
2018-01-15T15:03:25.368Z,33.45
2018-01-15T15:05:52.851Z,33.00
2018-01-15T15:08:20.330Z,31.05
2018-01-15T15:10:47.821Z,31.05
2018-01-15T15:13:15.314Z,32.13
2018-01-15T15:15:42.766Z,33.75
2018-01-15T15:18:10.232Z,30.83
2018-01-15T15:20:37.684Z,30.35
2018-01-15T15:23:05.144Z,30.52
2018-01-15T15:25:32.612Z,30.50
2018-01-15T15:28:00.081Z,31.20
2018-01-15T15:30:27.550Z,27.90
2018-01-15T15:32:55.035Z,29.70
2018-01-15T15:35:22.492Z,29.35
2018-01-15T15:37:49.966Z,30.75
2018-01-15T15:40:17.439Z,29.02
2018-01-15T15:42:44.907Z,28.60
2018-01-15T15:45:12.363Z,29.63
2018-01-15T15:47:39.831Z,28.98
2018-01-15T15:50:07.315Z,26.12
2018-01-15T15:52:34.809Z,28.35
2018-01-15T15:55:02.310Z,27.73
2018-01-15T15:57:29.782Z,25.85
2018-01-15T15:59:57.247Z,26.00
2018-01-15T16:02:24.713Z,24.70
2018-01-15T16:04:52.189Z,25.08
2018-01-15T16:07:19.661Z,24.73
2018-01-15T16:09:47.138Z,23.42
2018-01-15T16:12:14.597Z,24.20
2018-01-15T16:14:42.082Z,24.87
2018-01-15T16:17:09.563Z,27.17
2018-01-15T16:19:37.019Z,25.50
2018-01-15T16:22:16.062Z,25.17
2018-01-15T16:24:43.538Z,25.35
2018-01-15T16:27:11.010Z,24.70
2018-01-15T16:29:38.491Z,24.70
2018-01-15T16:32:05.963Z,23.08
2018-01-15T16:34:33.415Z,23.52
2018-01-15T16:37:00.907Z,25.80
2018-01-15T16:39:28.376Z,24.58
2018-01-15T16:41:55.851Z,24.33
2018-01-15T16:44:23.319Z,23.98
2018-01-15T16:46:50.867Z,25.25
2018-01-15T16:49:18.332Z,24.92
2018-01-15T16:51:45.814Z,24.05
2018-01-15T16:54:13.295Z,26.08
2018-01-15T16:56:40.767Z,26.30
2018-01-15T16:59:08.228Z,24.05
2018-01-15T17:01:35.715Z,23.08
2018-01-15T17:04:03.202Z,24.70
2018-01-15T17:06:30.672Z,24.80
2018-01-15T17:08:58.159Z,21.85
2018-01-15T17:11:25.617Z,23.12
2018-01-15T17:13:53.124Z,21.37
2018-01-15T17:16:20.695Z,21.35
2018-01-15T17:18:48.162Z,21.77
2018-01-15T17:21:15.651Z,20.98
2018-01-15T17:23:43.113Z,18.62
2018-01-15T17:26:10.563Z,19.95
2018-01-15T17:28:38.050Z,18.48
2018-01-15T17:31:05.516Z,18.85
2018-01-15T17:33:32.973Z,20.58
2018-01-15T17:36:00.467Z,20.12
2018-01-15T17:38:27.930Z,20.92
2018-01-15T17:40:55.392Z,19.90
2018-01-15T17:43:22.821Z,20.45
2018-01-15T17:45:50.391Z,19.77
2018-01-15T17:48:17.870Z,18.75
2018-01-15T17:50:45.390Z,20.98
2018-01-15T17:53:12.866Z,21.30
2018-01-15T17:55:40.324Z,22.58
2018-01-15T17:58:07.832Z,20.10
2018-01-15T18:00:35.324Z,21.15
2018-01-15T18:03:02.806Z,20.55
2018-01-15T18:05:30.276Z,19.75
2018-01-15T18:07:57.738Z,20.10
2018-01-15T18:10:25.201Z,20.40
2018-01-15T18:12:52.687Z,18.70
2018-01-15T18:15:20.188Z,19.83
2018-01-15T18:17:47.624Z,21.25
2018-01-15T18:20:15.088Z,20.73
2018-01-15T18:22:42.546Z,19.20
2018-01-15T18:25:10.031Z,20.52
2018-01-15T18:27:37.514Z,20.07
2018-01-15T18:30:04.969Z,21.48
2018-01-15T18:32:32.438Z,20.05
2018-01-15T18:34:59.983Z,21.25
2018-01-15T18:37:27.454Z,20.30
2018-01-15T18:39:54.930Z,20.00
2018-01-15T18:42:22.411Z,21.57
2018-01-15T18:44:49.872Z,22.87
2018-01-15T18:47:17.352Z,22.67
2018-01-15T18:49:44.837Z,21.50
2018-01-15T18:52:12.284Z,21.70
2018-01-15T18:54:39.752Z,23.05
2018-01-15T18:57:07.215Z,22.52
2018-01-15T18:59:34.672Z,22.27
2018-01-15T19:02:02.151Z,22.53
2018-01-15T19:04:29.622Z,24.37
2018-01-15T19:06:57.064Z,22.53
2018-01-15T19:09:24.560Z,23.65
2018-01-15T19:11:52.037Z,24.12
2018-01-15T19:14:19.493Z,25.58
2018-01-15T19:16:46.966Z,25.15
2018-01-15T19:19:14.417Z,26.00
2018-01-15T19:21:41.885Z,25.80
2018-01-15T19:24:09.366Z,23.73
2018-01-15T19:26:36.845Z,26.17
2018-01-15T19:29:04.308Z,27.00
2018-01-15T19:31:31.780Z,24.02
2018-01-15T19:33:59.249Z,20.88
2018-01-15T19:36:27.584Z,20.50
2018-01-15T19:38:55.097Z,23.27
2018-01-15T19:41:36.838Z,20.40
2018-01-15T19:44:09.862Z,20.65
2018-01-15T19:46:42.950Z,20.23
2018-01-15T19:49:15.986Z,18.70
2018-01-15T19:51:49.035Z,18.95
2018-01-15T19:54:22.145Z,18.50
2018-01-15T19:56:55.182Z,17.12
2018-01-15T19:59:28.188Z,17.10
2018-01-15T20:02:01.400Z,18.65
2018-01-15T20:04:34.467Z,16.02
2018-01-15T20:07:07.520Z,17.58
2018-01-15T20:09:40.505Z,16.83
2018-01-15T20:12:07.965Z,18.05
2018-01-15T20:14:35.433Z,15.90
2018-01-15T20:17:02.919Z,14.20
2018-01-15T20:19:30.380Z,16.12
2018-01-15T20:21:57.840Z,15.65
2018-01-15T20:24:25.335Z,14.60
2018-01-15T20:26:52.823Z,13.45
2018-01-15T20:29:20.295Z,14.00
2018-01-15T20:31:47.805Z,13.68
2018-01-15T20:34:15.292Z,13.98
2018-01-15T20:36:42.781Z,14.93
2018-01-15T20:39:10.277Z,14.50
2018-01-15T20:41:37.767Z,15.43
2018-01-15T20:44:05.256Z,14.77
2018-01-15T20:46:32.731Z,13.48
2018-01-15T20:49:00.218Z,13.95
2018-01-15T20:51:27.693Z,12.52
2018-01-15T20:53:55.210Z,12.18
2018-01-15T20:56:22.652Z,12.90
2018-01-15T20:58:50.190Z,14.00
2018-01-15T21:01:17.630Z,14.23
2018-01-15T21:03:45.110Z,12.20
2018-01-15T21:06:12.571Z,12.90
2018-01-15T21:08:40.062Z,12.37
2018-01-15T21:11:07.542Z,11.98
2018-01-15T21:13:35.023Z,11.73
2018-01-15T21:16:02.519Z,12.80
2018-01-15T21:18:30.002Z,11.20
2018-01-15T21:20:57.459Z,12.45
2018-01-15T21:23:24.947Z,12.27
2018-01-15T21:25:52.435Z,11.52
2018-01-15T21:28:19.915Z,11.55
2018-01-15T21:30:47.397Z,10.80
2018-01-15T21:33:14.863Z,11.05
2018-01-15T21:35:42.331Z,11.15
2018-01-15T21:38:09.822Z,11.05
2018-01-15T21:40:37.302Z,10.85
2018-01-15T21:43:04.764Z,11.12
2018-01-15T21:45:32.254Z,10.70
2018-01-15T21:47:59.727Z,10.90
2018-01-15T21:50:27.215Z,10.15
2018-01-15T21:52:54.685Z,9.85
2018-01-15T21:55:22.162Z,11.60
2018-01-15T21:57:49.620Z,10.75
2018-01-15T22:00:17.115Z,11.85
2018-01-15T22:02:44.586Z,12.35
2018-01-15T22:05:12.063Z,12.80
2018-01-15T22:07:39.528Z,10.75
2018-01-15T22:10:07.000Z,11.82
2018-01-15T22:12:34.478Z,12.00
2018-01-15T22:15:01.971Z,9.77
2018-01-15T22:17:29.456Z,10.73
2018-01-15T22:19:56.917Z,10.07
2018-01-15T22:22:24.387Z,10.20
2018-01-15T22:24:51.855Z,9.82
2018-01-15T22:27:19.330Z,9.80
2018-01-15T22:29:46.804Z,9.10
2018-01-15T22:32:14.256Z,9.85
2018-01-15T22:34:41.726Z,8.95
2018-01-15T22:37:09.210Z,8.43
2018-01-15T22:39:36.678Z,8.90
2018-01-15T22:42:04.147Z,8.35
2018-01-15T22:44:31.630Z,8.43
2018-01-15T22:46:59.095Z,8.70
2018-01-15T22:49:26.556Z,7.47
2018-01-15T22:51:54.024Z,8.88
2018-01-15T22:54:21.480Z,10.70
2018-01-15T22:56:48.936Z,8.65
2018-01-15T22:59:16.419Z,9.00
2018-01-15T23:01:43.890Z,7.40
2018-01-15T23:04:11.359Z,6.47
2018-01-15T23:06:38.820Z,7.95
2018-01-15T23:09:06.272Z,7.95
2018-01-15T23:11:33.727Z,7.10
2018-01-15T23:14:01.207Z,8.00
2018-01-15T23:16:28.682Z,7.72
2018-01-15T23:18:56.151Z,7.55
2018-01-15T23:21:23.632Z,7.65
2018-01-15T23:23:51.084Z,8.18
2018-01-15T23:26:18.548Z,8.32
2018-01-15T23:28:46.019Z,7.78
2018-01-15T23:31:13.505Z,7.57
2018-01-15T23:33:40.976Z,7.78
2018-01-15T23:36:08.447Z,9.23
2018-01-15T23:38:35.896Z,7.85
2018-01-15T23:41:03.376Z,7.87
2018-01-15T23:43:30.828Z,7.20
2018-01-15T23:45:58.275Z,5.75
2018-01-15T23:48:25.731Z,7.60
2018-01-15T23:50:53.200Z,7.28
2018-01-15T23:53:20.652Z,7.00
2018-01-15T23:55:48.099Z,6.78
2018-01-15T23:58:15.558Z,6.72
